首页
METAR-TAF:

METAR-TAF

机场 :

扎黑丹機場

扎黑丹, 伊朗

纬度: 29-28N, 经度: 060-53E, 海拔: 1370米

当前天气观测

该预报发布于21分钟前的03:30 UTC
静风
温度 4°C
湿度 70%
气压 1027 hPa
能见度10公里或以上
1500米以下无云,无积雨云

METAR: OIZH 170330Z 00000KT CAVOK 04/M01 Q1027 A3034

时间: 07:21 (03:51 UTC)

预报

该预报发布于4小时和41分钟前的23:10 UTC
预报有效从17日的 00点(UTC)到 18日的 06点(UTC)
风速6节,风向南转南东
能見度: 7000
几率 40%
从 17日的 09点(UTC)到 17日的 15点(UTC)
风速16节,风向南转南东
能見度: 4000

TAF: OIZH 162310Z 1700/1806 16006KT 7000 NSC PROB40 1709/1715 16016KT 4000 SA/DU

超过4000个机场的气象观测和天气预报(METAR&TAF报告)。

可查询的气象台以黄色和红色小点在地图上表示。

将鼠标移到小点上方,可查看气象台名称。

然后点击查看天气观测和预报。

如需切换地图:点击带黑十字的绿色按钮放大地图;点击带横线的绿色按钮缩小地图;或者点击绿色箭头查看邻近地区的地图。


METAR-TAF: